Time;durP1;ratioP1;P1;durP2;ratioP2;P2;SDS_P1;SDS_P2;PMS_P1;PMS_P2;Temp;Humidity;BMP_temperature;BMP_pressure;BME280_temperature;BME280_humidity;BME280_pressure;Samples;Min_cycle;Max_cycle;Signal;HPM_P1;HPM_P2
2024/01/29 00:00:09;;;;;;;15.63;4.88;;;;;;;-144.74;100.00;63161.41;4951927;28;20109;-73
2024/01/29 00:02:35;;;;;;;10.20;4.25;;;;;;;-144.74;100.00;63161.41;4955335;28;20015;-73
2024/01/29 00:05:00;;;;;;;17.35;4.65;;;;;;;-144.74;100.00;63161.41;4958125;28;20030;-73
2024/01/29 00:07:25;;;;;;;13.27;4.50;;;;;;;-144.74;100.00;63161.41;4970838;28;20121;-73
2024/01/29 00:09:51;;;;;;;13.05;4.00;;;;;;;-144.74;100.00;63161.41;4965606;28;20123;-72
2024/01/29 00:12:16;;;;;;;14.45;4.05;;;;;;;-144.74;100.00;63161.41;4966499;28;20118;-74
2024/01/29 00:14:41;;;;;;;14.93;4.40;;;;;;;-144.74;100.00;63161.41;4959063;28;20501;-72
2024/01/29 00:17:07;;;;;;;11.25;3.95;;;;;;;-144.74;100.00;63161.41;4972974;28;20034;-73
2024/01/29 00:19:32;;;;;;;16.00;4.00;;;;;;;-144.74;100.00;63161.41;4956734;28;20034;-73
2024/01/29 00:21:58;;;;;;;12.48;3.90;;;;;;;-144.74;100.00;63161.41;4959525;28;20077;-73
2024/01/29 00:24:23;;;;;;;11.13;3.88;;;;;;;-144.74;100.00;63161.41;4958729;28;20027;-73
2024/01/29 00:26:50;;;;;;;10.27;4.22;;;;;;;-144.74;100.00;63161.41;4956680;28;20023;-73
2024/01/29 00:29:15;;;;;;;6.85;3.78;;;;;;;-144.74;100.00;63161.41;4954148;28;20030;-73
2024/01/29 00:31:40;;;;;;;11.57;4.35;;;;;;;-144.74;100.00;63161.41;4954687;28;20053;-73
2024/01/29 00:34:06;;;;;;;9.05;3.50;;;;;;;-144.74;100.00;63161.41;4956049;28;20041;-73
2024/01/29 00:36:31;;;;;;;11.13;4.07;;;;;;;-144.74;100.00;63161.41;4951689;28;20055;-73
2024/01/29 00:38:56;;;;;;;13.60;4.03;;;;;;;-144.74;100.00;63161.41;4960717;28;20034;-74
2024/01/29 00:41:22;;;;;;;7.65;3.42;;;;;;;-144.74;100.00;63161.41;4958358;28;20031;-73
2024/01/29 00:43:47;;;;;;;10.23;3.70;;;;;;;-144.74;100.00;63161.41;4968785;28;20082;-74
2024/01/29 00:46:13;;;;;;;8.35;3.40;;;;;;;-144.74;100.00;63161.41;4961095;28;20034;-73
2024/01/29 00:48:39;;;;;;;9.32;3.58;;;;;;;-144.74;100.00;63161.41;4984314;28;20053;-73
2024/01/29 00:51:04;;;;;;;8.20;4.03;;;;;;;-144.74;100.00;63161.41;4959653;28;20062;-73
2024/01/29 00:53:32;;;;;;;11.07;4.05;;;;;;;-144.74;100.00;63161.41;4965717;28;20081;-73
2024/01/29 00:55:58;;;;;;;8.35;3.42;;;;;;;-144.74;100.00;63161.41;4958824;28;20039;-73
2024/01/29 00:58:26;;;;;;;14.02;4.72;;;;;;;-144.74;100.00;63161.41;4954366;28;20137;-73
2024/01/29 01:00:51;;;;;;;7.75;3.45;;;;;;;-144.74;100.00;63161.41;4955935;28;20031;-73
2024/01/29 01:03:17;;;;;;;12.15;3.83;;;;;;;-144.74;100.00;63161.41;4958756;28;20030;-74
2024/01/29 01:05:42;;;;;;;9.25;3.92;;;;;;;-144.74;100.00;63161.41;4965294;28;20521;-74
2024/01/29 01:08:07;;;;;;;10.45;3.45;;;;;;;-144.74;100.00;63161.41;4967749;28;20030;-73
2024/01/29 01:10:33;;;;;;;12.95;3.63;;;;;;;-144.74;100.00;63161.41;4947645;28;20035;-73
2024/01/29 01:12:59;;;;;;;11.75;3.80;;;;;;;-144.74;100.00;63161.41;4970046;28;20120;-73
2024/01/29 01:15:25;;;;;;;14.82;3.83;;;;;;;-144.74;100.00;63161.41;4951262;28;20035;-73
2024/01/29 01:17:50;;;;;;;9.75;3.33;;;;;;;-144.74;100.00;63161.41;4960994;28;20023;-74
2024/01/29 01:20:15;;;;;;;11.98;3.92;;;;;;;-144.74;100.00;63161.41;4956952;28;20034;-74
2024/01/29 01:22:41;;;;;;;8.73;3.22;;;;;;;-144.74;100.00;63161.41;4956041;28;20037;-74
2024/01/29 01:25:07;;;;;;;10.25;3.42;;;;;;;-144.74;100.00;63161.41;4960367;28;20043;-72
2024/01/29 01:27:32;;;;;;;11.90;3.28;;;;;;;-144.74;100.00;63161.41;4970262;28;20022;-72
2024/01/29 01:29:58;;;;;;;10.18;3.67;;;;;;;-144.74;100.00;63161.41;4970271;28;20031;-73
2024/01/29 01:32:23;;;;;;;9.52;2.72;;;;;;;-144.74;100.00;63161.41;4959627;28;20401;-73
2024/01/29 01:34:49;;;;;;;9.15;3.40;;;;;;;-144.74;100.00;63161.41;4952077;28;20066;-73
2024/01/29 01:37:14;;;;;;;8.90;3.38;;;;;;;-144.74;100.00;63161.41;4967242;28;20026;-73
2024/01/29 01:39:40;;;;;;;11.30;3.90;;;;;;;-144.74;100.00;63161.41;4964144;28;20034;-73
2024/01/29 01:42:05;;;;;;;7.82;2.97;;;;;;;-144.74;100.00;63161.41;4963103;28;20057;-73
2024/01/29 01:44:31;;;;;;;6.30;2.85;;;;;;;-144.74;100.00;63161.41;4955526;28;20055;-74
2024/01/29 01:46:57;;;;;;;9.85;3.00;;;;;;;-144.74;100.00;63161.41;4953057;28;20082;-74
2024/01/29 01:49:22;;;;;;;9.35;2.78;;;;;;;-144.74;100.00;63161.41;4951853;28;20019;-73
2024/01/29 01:51:49;;;;;;;8.32;2.97;;;;;;;-144.74;100.00;63161.41;4952721;28;20039;-73
2024/01/29 01:54:15;;;;;;;9.35;3.00;;;;;;;-144.74;100.00;63161.41;4952188;28;20070;-74
2024/01/29 01:56:42;;;;;;;7.85;2.55;;;;;;;-144.74;100.00;63161.41;4970149;28;20069;-74
2024/01/29 01:59:10;;;;;;;6.65;2.72;;;;;;;-144.74;100.00;63161.41;4960944;28;20041;-74
2024/01/29 02:01:35;;;;;;;9.18;3.10;;;;;;;-144.74;100.00;63161.41;4971713;28;20045;-74
2024/01/29 02:04:01;;;;;;;8.68;3.03;;;;;;;-144.74;100.00;63161.41;4955482;28;20031;-73
2024/01/29 02:06:26;;;;;;;6.20;3.17;;;;;;;-144.74;100.00;63161.41;4954676;28;20035;-73
2024/01/29 02:08:52;;;;;;;5.97;2.80;;;;;;;-144.74;100.00;63161.41;4955387;28;20034;-74
2024/01/29 02:11:17;;;;;;;8.50;2.72;;;;;;;-144.74;100.00;63161.41;4951606;28;20120;-73
2024/01/29 02:13:43;;;;;;;7.63;3.25;;;;;;;-144.74;100.00;63161.41;4958746;28;20161;-73
2024/01/29 02:16:08;;;;;;;9.30;3.45;;;;;;;-144.74;100.00;63161.41;4966313;28;20062;-74
2024/01/29 02:18:33;;;;;;;6.45;3.05;;;;;;;-144.74;100.00;63161.41;4959190;28;20026;-73
2024/01/29 02:20:59;;;;;;;6.70;2.60;;;;;;;-144.74;100.00;63161.41;4961023;28;20440;-74
2024/01/29 02:23:24;;;;;;;8.48;3.00;;;;;;;-144.74;100.00;63161.41;4960284;28;20034;-74
2024/01/29 02:25:53;;;;;;;8.30;2.92;;;;;;;-144.74;100.00;63161.41;4960128;28;20046;-74
2024/01/29 02:28:18;;;;;;;7.13;3.40;;;;;;;-144.74;100.00;63161.41;4978847;28;20384;-73
2024/01/29 02:30:44;;;;;;;6.95;3.28;;;;;;;-144.74;100.00;63161.41;4961827;28;20134;-73
2024/01/29 02:33:09;;;;;;;7.15;2.85;;;;;;;-144.74;100.00;63161.41;4957127;28;20050;-74
2024/01/29 02:35:38;;;;;;;8.65;3.15;;;;;;;-144.74;100.00;63161.41;4958067;28;20038;-74
2024/01/29 02:38:03;;;;;;;6.78;3.15;;;;;;;-144.74;100.00;63161.41;4955324;28;20030;-73
2024/01/29 02:40:28;;;;;;;6.97;2.85;;;;;;;-144.74;100.00;63161.41;4961127;28;20049;-74
2024/01/29 02:42:54;;;;;;;10.40;3.30;;;;;;;-144.74;100.00;63161.41;4953836;28;20037;-73
2024/01/29 02:45:20;;;;;;;7.25;3.33;;;;;;;-144.74;100.00;63161.41;4951547;28;20046;-73
2024/01/29 02:47:45;;;;;;;5.63;2.70;;;;;;;-144.74;100.00;63161.41;4950057;28;20375;-74
2024/01/29 02:50:10;;;;;;;9.05;2.67;;;;;;;-144.74;100.00;63161.41;4952755;28;20035;-73
2024/01/29 02:52:36;;;;;;;8.32;2.78;;;;;;;-144.74;100.00;63161.41;4951980;28;20022;-73
2024/01/29 02:55:01;;;;;;;10.85;2.97;;;;;;;-144.74;100.00;63161.41;4961145;28;20060;-75
2024/01/29 02:57:26;;;;;;;7.55;3.03;;;;;;;-144.74;100.00;63161.41;4975176;28;20113;-73
2024/01/29 02:59:52;;;;;;;8.75;2.72;;;;;;;-144.74;100.00;63161.41;4968463;28;20041;-74
2024/01/29 03:02:18;;;;;;;7.07;3.10;;;;;;;-144.74;100.00;63161.41;4962197;28;20034;-73
2024/01/29 03:04:43;;;;;;;6.45;2.65;;;;;;;-144.74;100.00;63161.41;4965336;28;20031;-73
2024/01/29 03:07:09;;;;;;;10.70;3.05;;;;;;;-144.74;100.00;63161.41;4974422;28;20031;-73
2024/01/29 03:09:34;;;;;;;7.32;2.67;;;;;;;-144.74;100.00;63161.41;4953813;28;20039;-72
2024/01/29 03:12:00;;;;;;;8.27;2.85;;;;;;;-144.74;100.00;63161.41;4954748;28;20108;-71
2024/01/29 03:14:25;;;;;;;9.27;2.60;;;;;;;-144.74;100.00;63161.41;4957059;28;20039;-75
2024/01/29 03:16:52;;;;;;;6.38;2.75;;;;;;;-144.74;100.00;63161.41;4959965;28;20061;-74
2024/01/29 03:19:18;;;;;;;7.43;2.78;;;;;;;-144.74;100.00;63161.41;4955715;28;20458;-74
2024/01/29 03:21:44;;;;;;;7.72;3.20;;;;;;;-144.74;100.00;63161.41;4958147;28;20027;-73
2024/01/29 03:24:09;;;;;;;9.32;3.00;;;;;;;-144.74;100.00;63161.41;4956168;28;20030;-71
2024/01/29 03:26:35;;;;;;;9.02;3.25;;;;;;;-144.74;100.00;63161.41;4957162;28;20054;-73
2024/01/29 03:29:00;;;;;;;10.75;4.13;;;;;;;-144.74;100.00;63161.41;4955406;28;20057;-73
2024/01/29 03:31:25;;;;;;;9.38;3.33;;;;;;;-144.74;100.00;63161.41;4972962;28;20576;-73
2024/01/29 03:33:51;;;;;;;8.80;2.80;;;;;;;-144.74;100.00;63161.41;4957913;28;20065;-73
2024/01/29 03:36:16;;;;;;;8.52;2.90;;;;;;;-144.74;100.00;63161.41;4954154;28;20031;-74
2024/01/29 03:38:42;;;;;;;10.65;3.10;;;;;;;-144.74;100.00;63161.41;4954837;28;20027;-74
2024/01/29 03:41:07;;;;;;;9.15;2.70;;;;;;;-144.74;100.00;63161.41;4974559;28;20038;-74
2024/01/29 03:43:33;;;;;;;10.45;2.95;;;;;;;-144.74;100.00;63161.41;4957503;28;20105;-74
2024/01/29 03:45:58;;;;;;;10.75;3.20;;;;;;;-144.74;100.00;63161.41;4963715;28;20035;-73
2024/01/29 03:48:23;;;;;;;10.02;2.85;;;;;;;-144.74;100.00;63161.41;4964568;28;20058;-73
2024/01/29 03:50:49;;;;;;;7.78;2.55;;;;;;;-144.74;100.00;63161.41;4963881;28;20042;-73
2024/01/29 03:53:14;;;;;;;8.88;2.80;;;;;;;-144.74;100.00;63161.41;4965570;28;20030;-72
2024/01/29 03:55:39;;;;;;;8.15;2.55;;;;;;;-144.74;100.00;63161.41;4956588;28;20039;-73
2024/01/29 03:58:05;;;;;;;6.03;2.60;;;;;;;-144.74;100.00;63161.41;4950778;28;20023;-73
2024/01/29 04:00:30;;;;;;;7.75;3.45;;;;;;;-144.74;100.00;63161.41;4976429;28;20030;-73
2024/01/29 04:02:56;;;;;;;8.30;2.85;;;;;;;-144.74;100.00;63161.41;4957181;28;20135;-74
2024/01/29 04:05:21;;;;;;;4.82;2.58;;;;;;;-144.74;100.00;63161.41;4953671;28;20034;-73
2024/01/29 04:07:47;;;;;;;5.15;2.28;;;;;;;-144.74;100.00;63161.41;4959473;28;20072;-73
2024/01/29 04:10:13;;;;;;;8.70;3.10;;;;;;;-144.74;100.00;63161.41;4954724;28;20139;-74
2024/01/29 04:12:38;;;;;;;5.00;2.47;;;;;;;-144.74;100.00;63161.41;4960354;28;20084;-74
2024/01/29 04:15:04;;;;;;;3.92;2.25;;;;;;;-144.74;100.00;63161.41;4973808;28;20053;-73
2024/01/29 04:17:30;;;;;;;7.10;2.80;;;;;;;-144.74;100.00;63161.41;4952152;28;20161;-73
2024/01/29 04:19:55;;;;;;;7.60;2.72;;;;;;;-144.74;100.00;63161.41;4951566;28;20105;-74
2024/01/29 04:22:21;;;;;;;5.90;2.63;;;;;;;-144.74;100.00;63161.41;4954957;28;20031;-73
2024/01/29 04:24:46;;;;;;;5.90;2.90;;;;;;;-144.74;100.00;63161.41;4973549;28;20035;-73
2024/01/29 04:27:11;;;;;;;8.02;3.05;;;;;;;-144.74;100.00;63161.41;4959948;28;20023;-73
2024/01/29 04:29:38;;;;;;;11.25;2.85;;;;;;;-144.74;100.00;63161.41;4956229;28;20523;-72
2024/01/29 04:32:04;;;;;;;6.32;2.00;;;;;;;-144.74;100.00;63161.41;4972595;28;20026;-73
2024/01/29 04:34:29;;;;;;;4.78;2.47;;;;;;;-144.74;100.00;63161.41;4959625;28;20402;-73
2024/01/29 04:36:54;;;;;;;6.78;2.80;;;;;;;-144.74;100.00;63161.41;4967917;28;20015;-73
2024/01/29 04:39:20;;;;;;;9.40;2.50;;;;;;;-144.74;100.00;63161.41;4962174;28;20062;-73
2024/01/29 04:41:45;;;;;;;6.05;2.80;;;;;;;-144.74;100.00;63161.41;4959084;28;20104;-73
2024/01/29 04:44:11;;;;;;;6.50;2.95;;;;;;;-144.74;100.00;63161.41;4959732;28;20038;-73
2024/01/29 04:46:36;;;;;;;7.10;3.25;;;;;;;-144.74;100.00;63161.41;4950844;28;20019;-73
2024/01/29 04:49:02;;;;;;;6.38;2.45;;;;;;;-144.74;100.00;63161.41;4956718;28;20490;-73
2024/01/29 04:51:27;;;;;;;8.10;2.75;;;;;;;-144.74;100.00;63161.41;4955840;28;20039;-73
2024/01/29 04:53:53;;;;;;;9.95;2.20;;;;;;;-144.74;100.00;63161.41;4954416;28;20027;-73
2024/01/29 04:56:18;;;;;;;7.25;2.63;;;;;;;-144.74;100.00;63161.41;4949954;28;20097;-72
2024/01/29 04:58:44;;;;;;;8.88;2.70;;;;;;;-144.74;100.00;63161.41;4954569;28;20078;-74
2024/01/29 05:01:09;;;;;;;6.25;2.25;;;;;;;-144.74;100.00;63161.41;4952813;28;20038;-75
2024/01/29 05:03:35;;;;;;;5.55;2.47;;;;;;;-144.74;100.00;63161.41;4952810;28;20037;-72
2024/01/29 05:06:01;;;;;;;11.00;2.47;;;;;;;-144.74;100.00;63161.41;4970306;28;20130;-73
2024/01/29 05:08:26;;;;;;;9.32;2.92;;;;;;;-144.74;100.00;63161.41;4956188;28;20022;-73
2024/01/29 05:10:51;;;;;;;6.53;2.42;;;;;;;-144.74;100.00;63161.41;4960768;28;20118;-73
2024/01/29 05:13:17;;;;;;;8.20;3.45;;;;;;;-144.74;100.00;63161.41;4960259;28;20057;-74
2024/01/29 05:15:42;;;;;;;9.00;2.88;;;;;;;-144.74;100.00;63161.41;4960712;28;20031;-74
2024/01/29 05:18:07;;;;;;;6.65;2.67;;;;;;;-144.74;100.00;63161.41;4962220;28;20022;-73
2024/01/29 05:20:33;;;;;;;5.95;2.65;;;;;;;-144.74;100.00;63161.41;4962112;28;20103;-73
2024/01/29 05:22:58;;;;;;;7.68;2.55;;;;;;;-144.74;100.00;63161.41;4983304;28;20046;-73
2024/01/29 05:25:24;;;;;;;6.95;2.80;;;;;;;-144.74;100.00;63161.41;4964543;28;20118;-76
2024/01/29 05:27:49;;;;;;;8.18;2.95;;;;;;;-144.74;100.00;63161.41;4959708;28;20029;-74
2024/01/29 05:30:15;;;;;;;8.02;2.92;;;;;;;-144.74;100.00;63161.41;4968077;28;20036;-75
2024/01/29 05:32:40;;;;;;;7.57;2.90;;;;;;;-144.74;100.00;63161.41;4956893;28;20038;-74
2024/01/29 05:35:06;;;;;;;9.63;3.25;;;;;;;-144.74;100.00;63161.41;4955513;28;20045;-75
2024/01/29 05:37:34;;;;;;;7.63;2.78;;;;;;;-144.74;100.00;63161.41;4955616;28;20023;-75
2024/01/29 05:40:00;;;;;;;8.35;3.10;;;;;;;-144.74;100.00;63161.41;4955433;28;20038;-74
2024/01/29 05:42:25;;;;;;;7.20;2.90;;;;;;;-144.74;100.00;63161.41;4955546;28;20019;-76
2024/01/29 05:44:50;;;;;;;10.27;2.42;;;;;;;-144.74;100.00;63161.41;4951800;28;20031;-73
2024/01/29 05:47:16;;;;;;;9.23;2.97;;;;;;;-144.74;100.00;63161.41;4953885;28;20367;-73
2024/01/29 05:49:41;;;;;;;7.00;2.67;;;;;;;-144.74;100.00;63161.41;4957649;28;20027;-73
2024/01/29 05:52:07;;;;;;;6.65;2.95;;;;;;;-144.74;100.00;63161.41;4959953;28;20045;-75
2024/01/29 05:54:32;;;;;;;7.55;2.67;;;;;;;-144.74;100.00;63161.41;4949050;28;20050;-75
2024/01/29 05:56:58;;;;;;;6.22;2.88;;;;;;;-144.74;100.00;63161.41;4962092;28;20034;-74
2024/01/29 05:59:23;;;;;;;8.95;3.20;;;;;;;-144.74;100.00;63161.41;4955557;28;20031;-74
2024/01/29 06:01:48;;;;;;;9.73;3.08;;;;;;;-144.74;100.00;63161.41;4958212;28;20015;-73
2024/01/29 06:04:14;;;;;;;8.18;3.05;;;;;;;-144.74;100.00;63161.41;4955170;28;20022;-73
2024/01/29 06:06:41;;;;;;;10.18;2.83;;;;;;;-144.74;100.00;63161.41;4970853;28;20073;-75
2024/01/29 06:09:07;;;;;;;5.53;2.78;;;;;;;-144.74;100.00;63161.41;4975838;28;20096;-73
2024/01/29 06:11:32;;;;;;;9.43;2.95;;;;;;;-144.74;100.00;63161.41;4971998;28;20457;-73
2024/01/29 06:13:59;;;;;;;13.45;3.50;;;;;;;-144.74;100.00;63161.41;4956830;28;20103;-73
2024/01/29 06:16:25;;;;;;;9.93;3.15;;;;;;;-144.74;100.00;63161.41;4968711;28;20121;-73
2024/01/29 06:18:51;;;;;;;9.18;3.63;;;;;;;-144.74;100.00;63161.41;4957394;28;20114;-75
2024/01/29 06:21:16;;;;;;;6.57;2.65;;;;;;;-144.74;100.00;63161.41;4953086;28;20047;-73
2024/01/29 06:23:42;;;;;;;10.07;3.15;;;;;;;-144.74;100.00;63161.41;4976883;28;20034;-73
2024/01/29 06:26:07;;;;;;;11.20;3.78;;;;;;;-144.74;100.00;63161.41;4958206;28;20502;-73
2024/01/29 06:28:33;;;;;;;5.25;2.35;;;;;;;-144.74;100.00;63161.41;4971369;28;20106;-74
2024/01/29 06:30:58;;;;;;;11.30;3.40;;;;;;;-144.74;100.00;63161.41;4948187;28;20106;-74
2024/01/29 06:33:24;;;;;;;8.80;2.70;;;;;;;-144.74;100.00;63161.41;4964698;28;20037;-74
2024/01/29 06:35:50;;;;;;;7.22;3.30;;;;;;;-144.74;100.00;63161.41;4958856;28;20035;-74
2024/01/29 06:38:15;;;;;;;5.93;2.20;;;;;;;-144.74;100.00;63161.41;4956997;28;20029;-73
2024/01/29 06:40:41;;;;;;;4.95;2.58;;;;;;;-144.74;100.00;63161.41;4955629;28;20039;-69
2024/01/29 06:43:07;;;;;;;11.88;4.40;;;;;;;-144.74;100.00;63161.41;4960356;28;20023;-69
2024/01/29 06:45:32;;;;;;;7.95;2.70;;;;;;;-144.74;100.00;63161.41;4970026;28;20042;-69
2024/01/29 06:47:58;;;;;;;6.82;2.75;;;;;;;-144.74;100.00;63161.41;4970680;28;20053;-69
2024/01/29 06:50:23;;;;;;;4.35;2.40;;;;;;;-144.74;100.00;63161.41;4954171;28;20055;-70
2024/01/29 06:52:49;;;;;;;7.80;2.70;;;;;;;-144.74;100.00;63161.41;4957083;28;20082;-69
2024/01/29 06:55:15;;;;;;;7.53;2.58;;;;;;;-144.74;100.00;63161.41;4972314;28;20035;-69
2024/01/29 06:57:40;;;;;;;9.10;2.40;;;;;;;-144.74;100.00;63161.41;4955569;28;20027;-69
2024/01/29 07:00:06;;;;;;;6.70;2.40;;;;;;;-144.74;100.00;63161.41;4953126;28;20031;-68
2024/01/29 07:02:32;;;;;;;6.68;2.85;;;;;;;-144.74;100.00;63161.41;4957381;28;20490;-70
2024/01/29 07:04:57;;;;;;;7.55;2.63;;;;;;;-144.74;100.00;63161.41;4952179;28;20117;-70
2024/01/29 07:07:23;;;;;;;7.68;3.00;;;;;;;-144.74;100.00;63161.41;4954105;28;20027;-69
2024/01/29 07:09:52;;;;;;;6.90;2.58;;;;;;;-144.74;100.00;63161.41;4970124;28;20035;-66
2024/01/29 07:12:18;;;;;;;10.52;2.67;;;;;;;-144.74;100.00;63161.41;4973937;28;20034;-70
2024/01/29 07:14:43;;;;;;;10.10;3.05;;;;;;;-144.74;100.00;63161.41;4948742;28;20027;-71
2024/01/29 07:17:08;;;;;;;8.07;2.53;;;;;;;-144.74;100.00;63161.41;4977164;28;20027;-68
2024/01/29 07:19:34;;;;;;;10.70;2.67;;;;;;;-144.74;100.00;63161.41;4955500;28;20119;-70
2024/01/29 07:22:04;;;;;;;6.55;2.50;;;;;;;-144.74;100.00;63161.41;4979936;28;20031;-69
2024/01/29 07:24:33;;;;;;;10.07;3.50;;;;;;;-144.74;100.00;63161.41;4959084;28;20035;-65
2024/01/29 07:26:59;;;;;;;6.90;2.53;;;;;;;-144.74;100.00;63161.41;4977861;28;20048;-69
2024/01/29 07:29:26;;;;;;;6.35;2.72;;;;;;;-144.74;100.00;63161.41;4956986;28;20023;-70
2024/01/29 07:31:53;;;;;;;8.03;2.90;;;;;;;-144.74;100.00;63161.41;4919672;28;1167992;-69
2024/01/29 07:34:18;;;;;;;6.70;2.80;;;;;;;-144.74;100.00;63161.41;4956637;28;20062;-69
2024/01/29 07:36:44;;;;;;;6.72;2.78;;;;;;;-144.74;100.00;63161.41;4958922;28;20133;-70
2024/01/29 07:39:12;;;;;;;9.77;2.92;;;;;;;-144.74;100.00;63161.41;4969958;28;20031;-69
2024/01/29 07:41:37;;;;;;;7.75;3.17;;;;;;;-144.74;100.00;63161.41;4944968;28;20089;-69
2024/01/29 07:44:03;;;;;;;7.95;2.90;;;;;;;-144.74;100.00;63161.41;4969619;28;20027;-71
2024/01/29 07:46:29;;;;;;;12.48;3.58;;;;;;;-144.74;100.00;63161.41;4962184;28;20042;-69
2024/01/29 07:48:55;;;;;;;7.05;3.10;;;;;;;-144.74;100.00;63161.41;4959521;28;20033;-68
2024/01/29 07:51:20;;;;;;;7.68;3.10;;;;;;;-144.74;100.00;63161.41;4954699;28;20058;-67
2024/01/29 07:53:45;;;;;;;7.05;3.45;;;;;;;-144.74;100.00;63161.41;4957061;28;20125;-69
2024/01/29 07:56:11;;;;;;;6.43;2.42;;;;;;;-144.74;100.00;63161.41;4961164;28;20045;-71
2024/01/29 07:58:37;;;;;;;8.20;2.78;;;;;;;-144.74;100.00;63161.41;4984493;28;20030;-69
2024/01/29 08:01:02;;;;;;;3.88;2.45;;;;;;;-144.74;100.00;63161.41;4959154;28;20109;-69
2024/01/29 08:03:27;;;;;;;11.02;3.03;;;;;;;-144.74;100.00;63161.41;4966726;28;20065;-67
2024/01/29 08:05:52;;;;;;;6.88;2.38;;;;;;;-144.74;100.00;63161.41;4957984;28;20061;-70
2024/01/29 08:08:18;;;;;;;6.38;2.63;;;;;;;-144.74;100.00;63161.41;4955838;28;20039;-69
2024/01/29 08:10:44;;;;;;;6.32;3.25;;;;;;;-144.74;100.00;63161.41;4955688;28;20049;-68
2024/01/29 08:13:09;;;;;;;9.20;3.08;;;;;;;-144.74;100.00;63161.41;4959595;28;20041;-68
2024/01/29 08:15:35;;;;;;;5.28;2.60;;;;;;;-144.74;100.00;63161.41;4975598;28;20039;-70
2024/01/29 08:18:00;;;;;;;7.07;2.63;;;;;;;-144.74;100.00;63161.41;4970886;28;20031;-69
2024/01/29 08:20:26;;;;;;;7.00;3.13;;;;;;;-144.74;100.00;63161.41;4954273;28;20045;-70
2024/01/29 08:22:52;;;;;;;13.15;2.83;;;;;;;-144.74;100.00;63161.41;4977459;28;20114;-67
2024/01/29 08:25:20;;;;;;;15.23;2.97;;;;;;;-144.74;100.00;63161.41;4948233;28;20130;-71
2024/01/29 08:27:45;;;;;;;7.70;3.05;;;;;;;-144.74;100.00;63161.41;4954826;28;20082;-71
2024/01/29 08:30:11;;;;;;;8.52;3.03;;;;;;;-144.74;100.00;63161.41;4952777;28;20073;-69
2024/01/29 08:32:36;;;;;;;10.75;3.20;;;;;;;-144.74;100.00;63161.41;4950069;28;20043;-69
2024/01/29 08:35:02;;;;;;;6.70;3.00;;;;;;;-144.74;100.00;63161.41;4949605;28;20035;-68
2024/01/29 08:37:28;;;;;;;9.40;3.22;;;;;;;-144.74;100.00;63161.41;4963823;28;20030;-70
2024/01/29 08:39:53;;;;;;;5.63;2.45;;;;;;;-144.74;100.00;63161.41;4960624;28;20030;-69
2024/01/29 08:42:18;;;;;;;7.30;2.88;;;;;;;-144.74;100.00;63161.41;4962352;28;20118;-69
2024/01/29 08:44:45;;;;;;;9.38;2.78;;;;;;;-144.74;100.00;63161.41;4961973;28;20049;-70
2024/01/29 08:47:10;;;;;;;10.73;3.05;;;;;;;-144.74;100.00;63161.41;4956070;28;20041;-69
2024/01/29 08:49:36;;;;;;;6.70;2.60;;;;;;;-144.74;100.00;63161.41;4983433;28;20042;-69
2024/01/29 08:52:01;;;;;;;6.10;2.75;;;;;;;-144.74;100.00;63161.41;4954561;28;20086;-68
2024/01/29 08:54:27;;;;;;;7.90;3.05;;;;;;;-144.74;100.00;63161.41;4959731;28;20023;-67
2024/01/29 08:56:52;;;;;;;8.65;3.03;;;;;;;-144.74;100.00;63161.41;4959482;28;20519;-69
2024/01/29 08:59:19;;;;;;;26.08;3.72;;;;;;;-144.74;100.00;63161.41;4970841;28;20034;-69
2024/01/29 09:01:45;;;;;;;14.18;3.33;;;;;;;-144.74;100.00;63161.41;4977614;28;20035;-69
2024/01/29 09:04:10;;;;;;;6.15;2.75;;;;;;;-144.74;100.00;63161.41;4953834;28;20114;-68
2024/01/29 09:06:36;;;;;;;8.68;2.58;;;;;;;-144.74;100.00;63161.41;4952157;28;20027;-66
2024/01/29 09:09:01;;;;;;;12.13;2.92;;;;;;;-144.74;100.00;63161.41;4967312;28;20083;-66
2024/01/29 09:11:27;;;;;;;12.45;2.80;;;;;;;-144.74;100.00;63161.41;4949909;28;20049;-70
2024/01/29 09:13:52;;;;;;;9.85;2.90;;;;;;;-144.74;100.00;63161.41;4957320;28;20038;-69
2024/01/29 09:16:17;;;;;;;11.07;2.63;;;;;;;-144.74;100.00;63161.41;4962335;28;20105;-68
2024/01/29 09:18:42;;;;;;;12.00;2.85;;;;;;;-144.74;100.00;63161.41;4954280;28;20037;-65
2024/01/29 09:21:09;;;;;;;11.20;3.47;;;;;;;-144.74;100.00;63161.41;4956933;28;20034;-69
2024/01/29 09:23:35;;;;;;;14.82;3.00;;;;;;;-144.74;100.00;63161.41;4960508;28;20182;-68
2024/01/29 09:26:00;;;;;;;4.13;2.33;;;;;;;-144.74;100.00;63161.41;4962312;28;20094;-67
2024/01/29 09:28:26;;;;;;;8.70;3.10;;;;;;;-144.74;100.00;63161.41;4954345;28;20026;-68
2024/01/29 09:30:51;;;;;;;6.55;2.67;;;;;;;-144.74;100.00;63161.41;4972294;28;20126;-68
2024/01/29 09:33:19;;;;;;;8.38;2.92;;;;;;;-144.74;100.00;63161.41;4980840;28;20053;-69
2024/01/29 09:35:45;;;;;;;7.43;2.97;;;;;;;-144.74;100.00;63161.41;4960892;28;20046;-66
2024/01/29 09:38:10;;;;;;;8.90;3.20;;;;;;;-144.74;100.00;63161.41;4948305;28;20022;-66
2024/01/29 09:40:36;;;;;;;7.30;2.42;;;;;;;-144.74;100.00;63161.41;4947414;28;20094;-68
2024/01/29 09:43:05;;;;;;;14.90;2.72;;;;;;;-144.74;100.00;63161.41;4951703;28;20035;-67
2024/01/29 09:45:33;;;;;;;6.72;2.67;;;;;;;-144.74;100.00;63161.41;4955058;28;20035;-66
2024/01/29 09:47:59;;;;;;;8.00;3.10;;;;;;;-144.74;100.00;63161.41;4960451;28;20018;-69
2024/01/29 09:50:27;;;;;;;8.10;2.58;;;;;;;-144.74;100.00;63161.41;4973612;28;20053;-68
2024/01/29 09:52:55;;;;;;;7.90;2.75;;;;;;;-144.74;100.00;63161.41;4960609;28;20069;-66
2024/01/29 09:55:23;;;;;;;7.95;2.67;;;;;;;-144.74;100.00;63161.41;4955227;28;20118;-68
2024/01/29 09:57:49;;;;;;;15.98;2.90;;;;;;;-144.74;100.00;63161.41;4948180;28;20027;-69
2024/01/29 10:00:14;;;;;;;22.48;3.13;;;;;;;-144.74;100.00;63161.41;4949841;28;20101;-66
2024/01/29 10:02:42;;;;;;;7.97;3.10;;;;;;;-144.74;100.00;63161.41;4949567;28;20058;-69
2024/01/29 10:05:11;;;;;;;7.90;3.45;;;;;;;-144.74;100.00;63161.41;4949815;28;20047;-70
2024/01/29 10:07:37;;;;;;;9.65;2.40;;;;;;;-144.74;100.00;63161.41;4963396;28;20031;-69
2024/01/29 10:10:06;;;;;;;10.98;2.58;;;;;;;-144.74;100.00;63161.41;4971002;28;20065;-70
2024/01/29 10:12:31;;;;;;;11.90;3.33;;;;;;;-144.74;100.00;63161.41;4957977;28;20061;-68
2024/01/29 10:14:56;;;;;;;19.23;2.88;;;;;;;-144.74;100.00;63161.41;4962307;28;20069;-68
2024/01/29 10:17:25;;;;;;;7.78;2.63;;;;;;;-144.74;100.00;63161.41;4964198;28;20409;-68
2024/01/29 10:19:51;;;;;;;11.52;3.13;;;;;;;-144.74;100.00;63161.41;4955792;28;20035;-68
2024/01/29 10:22:17;;;;;;;5.80;2.70;;;;;;;-144.74;100.00;63161.41;4973753;28;20034;-68
2024/01/29 10:24:43;;;;;;;42.95;4.18;;;;;;;-144.74;100.00;63161.41;4962143;28;20042;-68
2024/01/29 10:27:08;;;;;;;5.15;2.30;;;;;;;-144.74;100.00;63161.41;4956741;28;20031;-68
2024/01/29 10:29:47;;;;;;;17.17;3.63;;;;;;;-144.74;100.00;63161.41;4963232;28;20061;-68
2024/01/29 10:32:13;;;;;;;5.80;2.33;;;;;;;-144.74;100.00;63161.41;4961943;28;20085;-68
2024/01/29 10:34:39;;;;;;;5.80;2.30;;;;;;;-144.74;100.00;63161.41;4952155;28;20046;-67
2024/01/29 10:37:06;;;;;;;4.80;2.20;;;;;;;-144.74;100.00;63161.41;4954882;28;20545;-69
2024/01/29 10:39:34;;;;;;;4.72;2.47;;;;;;;-144.74;100.00;63161.41;4956312;28;20034;-68
2024/01/29 10:42:01;;;;;;;11.10;3.00;;;;;;;-144.74;100.00;63161.41;4957655;28;20119;-66
2024/01/29 10:44:31;;;;;;;8.43;3.28;;;;;;;-144.74;100.00;63161.41;4953194;28;20062;-69
2024/01/29 10:46:58;;;;;;;8.20;2.60;;;;;;;-144.74;100.00;63161.41;4951053;28;20109;-69
2024/01/29 10:49:24;;;;;;;12.82;3.00;;;;;;;-144.74;100.00;63161.41;4947753;28;20043;-68
2024/01/29 10:51:53;;;;;;;6.57;2.53;;;;;;;-144.74;100.00;63161.41;4950895;28;20030;-70
2024/01/29 10:54:19;;;;;;;11.73;3.45;;;;;;;-144.74;100.00;63161.41;4944170;28;20034;-69
2024/01/29 10:56:45;;;;;;;5.63;2.53;;;;;;;-144.74;100.00;63161.41;4968988;28;20031;-68
2024/01/29 10:59:12;;;;;;;8.20;3.30;;;;;;;-144.74;100.00;63161.41;4952227;28;20019;-69